createdAt,value
2018-12-15T00:02:12.102Z,2.20
2018-12-15T00:04:40.048Z,2.20
2018-12-15T00:07:08.052Z,2.20
2018-12-15T00:09:36.628Z,2.20
2018-12-15T00:12:04.596Z,2.20
2018-12-15T00:14:32.578Z,2.20
2018-12-15T00:17:05.644Z,2.10
2018-12-15T00:19:30.520Z,2.10
2018-12-15T00:21:58.444Z,2.00
2018-12-15T00:24:26.381Z,2.00
2018-12-15T00:26:54.307Z,1.90
2018-12-15T00:29:22.376Z,1.90
2018-12-15T00:31:50.320Z,1.90
2018-12-15T00:34:18.372Z,2.00
2018-12-15T00:36:46.288Z,2.00
2018-12-15T00:39:14.223Z,2.00
2018-12-15T00:41:42.138Z,2.00
2018-12-15T00:44:10.158Z,2.00
2018-12-15T00:46:38.139Z,2.00
2018-12-15T00:49:06.204Z,2.00
2018-12-15T00:51:34.194Z,2.00
2018-12-15T00:54:02.176Z,2.00
2018-12-15T00:56:30.124Z,2.00
2018-12-15T00:58:58.055Z,2.00
2018-12-15T01:01:25.978Z,2.00
2018-12-15T01:03:53.912Z,2.10
2018-12-15T01:06:21.896Z,2.10
2018-12-15T01:08:49.806Z,2.20
2018-12-15T01:11:17.715Z,2.30
2018-12-15T01:13:45.638Z,2.50
2018-12-15T01:16:13.563Z,2.60
2018-12-15T01:18:41.552Z,2.60
2018-12-15T01:21:09.499Z,2.60
2018-12-15T01:23:37.421Z,2.60
2018-12-15T01:26:05.407Z,2.70
2018-12-15T01:28:33.358Z,2.80
2018-12-15T01:31:01.308Z,2.80
2018-12-15T01:33:29.243Z,2.70
2018-12-15T01:35:57.261Z,2.70
2018-12-15T01:38:25.193Z,2.80
2018-12-15T01:40:53.135Z,2.80
2018-12-15T01:43:21.119Z,2.80
2018-12-15T01:45:49.159Z,2.80
2018-12-15T01:48:17.084Z,2.90
2018-12-15T01:50:45.011Z,2.90
2018-12-15T01:53:13.517Z,2.90
2018-12-15T01:55:41.516Z,2.90
2018-12-15T01:58:09.441Z,2.80
2018-12-15T02:00:37.386Z,2.70
2018-12-15T02:03:05.407Z,2.70
2018-12-15T02:05:33.367Z,2.80
2018-12-15T02:08:01.307Z,2.90
2018-12-15T02:10:29.253Z,2.90
2018-12-15T02:12:57.236Z,2.90
2018-12-15T02:15:25.188Z,3.00
2018-12-15T02:17:53.132Z,3.00
2018-12-15T02:20:21.059Z,3.00
2018-12-15T02:22:49.000Z,2.90
2018-12-15T02:25:16.908Z,2.90
2018-12-15T02:27:44.941Z,2.90
2018-12-15T02:30:12.874Z,2.80
2018-12-15T02:32:40.810Z,2.70
2018-12-15T02:35:08.752Z,2.60
2018-12-15T02:37:36.691Z,2.50
2018-12-15T02:40:06.168Z,2.40
2018-12-15T02:42:34.120Z,2.20
2018-12-15T02:45:02.056Z,2.20
2018-12-15T02:47:30.052Z,2.20
2018-12-15T02:49:58.004Z,2.30
2018-12-15T02:52:25.945Z,2.40
2018-12-15T02:54:53.878Z,2.60
2018-12-15T02:57:21.797Z,2.70
2018-12-15T02:59:49.728Z,2.80
2018-12-15T03:02:17.898Z,2.70
2018-12-15T03:04:45.856Z,2.70
2018-12-15T03:07:13.779Z,2.60
2018-12-15T03:09:41.710Z,2.60
2018-12-15T03:12:09.722Z,2.60
2018-12-15T03:14:37.656Z,2.60
2018-12-15T03:17:06.431Z,2.50
2018-12-15T03:19:34.646Z,2.40
2018-12-15T03:22:02.625Z,2.40
2018-12-15T03:24:30.579Z,2.40
2018-12-15T03:26:58.529Z,2.40
2018-12-15T03:29:26.471Z,2.40
2018-12-15T03:31:54.400Z,2.40
2018-12-15T03:34:22.340Z,2.40
2018-12-15T03:36:50.351Z,2.40
2018-12-15T03:39:18.595Z,2.40
2018-12-15T03:41:46.535Z,2.40
2018-12-15T03:44:14.452Z,2.30
2018-12-15T03:46:42.360Z,2.40
2018-12-15T03:49:10.296Z,2.40
2018-12-15T03:51:38.532Z,2.50
2018-12-15T03:54:06.467Z,2.50
2018-12-15T03:56:34.404Z,2.50
2018-12-15T03:59:02.365Z,2.50
2018-12-15T04:01:30.371Z,2.60
2018-12-15T04:03:58.307Z,2.70
2018-12-15T04:06:26.237Z,2.80
2018-12-15T04:08:54.172Z,2.90
2018-12-15T04:11:22.204Z,2.90
2018-12-15T04:13:50.550Z,2.90
2018-12-15T04:16:18.450Z,3.10
2018-12-15T04:18:46.365Z,3.20
2018-12-15T04:21:14.380Z,3.20
2018-12-15T04:23:42.316Z,3.10
2018-12-15T04:26:10.257Z,3.10
2018-12-15T04:28:38.196Z,3.00
2018-12-15T04:31:06.127Z,2.90
2018-12-15T04:33:34.079Z,2.80
2018-12-15T04:36:12.043Z,2.70
2018-12-15T04:38:40.051Z,2.70
2018-12-15T04:41:07.972Z,2.60
2018-12-15T04:43:36.007Z,2.60
2018-12-15T04:46:03.934Z,2.60
2018-12-15T04:48:31.950Z,2.70
2018-12-15T04:50:59.878Z,2.60
2018-12-15T04:53:27.816Z,2.70
2018-12-15T04:55:55.760Z,2.60
2018-12-15T04:58:23.876Z,2.60
2018-12-15T05:00:51.804Z,2.60
2018-12-15T05:03:19.776Z,2.60
2018-12-15T05:05:47.739Z,2.60
2018-12-15T05:08:15.668Z,2.50
2018-12-15T05:10:43.603Z,2.50
2018-12-15T05:13:11.641Z,2.50
2018-12-15T05:15:39.555Z,2.50
2018-12-15T05:18:07.509Z,2.40
2018-12-15T05:20:35.435Z,2.40
2018-12-15T05:23:03.365Z,2.30
2018-12-15T05:25:31.320Z,2.30
2018-12-15T05:27:59.246Z,2.20
2018-12-15T05:30:27.188Z,2.10
2018-12-15T05:32:55.294Z,2.10
2018-12-15T05:35:23.396Z,2.10
2018-12-15T05:37:51.309Z,2.10
2018-12-15T05:40:19.236Z,2.10
2018-12-15T05:42:47.165Z,2.20
2018-12-15T05:45:15.172Z,2.30
2018-12-15T05:47:43.367Z,2.30
2018-12-15T05:50:11.836Z,2.30
2018-12-15T05:52:39.761Z,2.30
2018-12-15T05:55:07.675Z,2.30
2018-12-15T05:57:35.596Z,2.30
2018-12-15T06:00:04.169Z,2.40
2018-12-15T06:02:32.349Z,2.30
2018-12-15T06:05:00.436Z,2.30
2018-12-15T06:07:28.423Z,2.30
2018-12-15T06:09:56.472Z,2.30
2018-12-15T06:12:24.795Z,2.20
2018-12-15T06:14:52.787Z,2.00
2018-12-15T06:17:20.744Z,1.90
2018-12-15T06:19:48.657Z,1.90
2018-12-15T06:22:16.570Z,1.90
2018-12-15T06:24:44.501Z,1.80
2018-12-15T06:27:12.475Z,1.80
2018-12-15T06:29:40.431Z,1.70
2018-12-15T06:32:08.368Z,1.70
2018-12-15T06:34:36.280Z,1.60
2018-12-15T06:37:04.199Z,1.60
2018-12-15T06:39:32.133Z,1.60
2018-12-15T06:42:00.289Z,1.60
2018-12-15T06:44:28.213Z,1.60
2018-12-15T06:46:56.206Z,1.70
2018-12-15T06:49:24.895Z,1.70
2018-12-15T06:51:52.865Z,1.70
2018-12-15T06:54:20.793Z,1.80
2018-12-15T06:56:48.708Z,1.70
2018-12-15T06:59:16.627Z,1.70
2018-12-15T07:01:44.591Z,1.60
2018-12-15T07:04:12.519Z,1.70
2018-12-15T07:06:40.432Z,1.70
2018-12-15T07:09:08.468Z,1.70
2018-12-15T07:11:36.386Z,1.80
2018-12-15T07:14:04.324Z,1.80
2018-12-15T07:16:32.404Z,1.80
2018-12-15T07:19:00.399Z,1.80
2018-12-15T07:21:28.340Z,1.80
2018-12-15T07:23:56.264Z,1.80
2018-12-15T07:26:24.201Z,1.80
2018-12-15T07:28:52.128Z,1.80
2018-12-15T07:31:20.064Z,1.90
2018-12-15T07:33:48.084Z,2.00
2018-12-15T07:36:16.008Z,2.00
2018-12-15T07:38:44.879Z,2.10
2018-12-15T07:41:12.824Z,2.10
2018-12-15T07:43:40.852Z,2.20
2018-12-15T07:46:08.804Z,2.20
2018-12-15T07:48:43.496Z,2.20
2018-12-15T07:51:11.484Z,2.20
2018-12-15T07:53:39.404Z,2.10
2018-12-15T07:56:07.332Z,2.10
2018-12-15T07:58:35.296Z,2.10
2018-12-15T08:01:03.408Z,2.10
2018-12-15T08:03:31.374Z,2.00
2018-12-15T08:05:59.333Z,2.00
2018-12-15T08:08:27.262Z,2.10
2018-12-15T08:12:02.744Z,2.10
2018-12-15T08:14:30.680Z,2.30
2018-12-15T08:16:58.612Z,2.50
2018-12-15T08:19:26.545Z,2.60
2018-12-15T08:21:54.525Z,2.80
2018-12-15T08:24:22.569Z,2.90
2018-12-15T08:26:50.496Z,3.10
2018-12-15T08:29:18.457Z,3.40
2018-12-15T08:31:46.392Z,3.70
2018-12-15T08:34:14.339Z,3.90
2018-12-15T08:36:42.260Z,4.10
2018-12-15T08:39:10.176Z,4.30
2018-12-15T08:41:38.112Z,4.30
2018-12-15T08:44:06.103Z,4.30
2018-12-15T08:46:34.065Z,4.20
2018-12-15T08:49:04.705Z,4.20
2018-12-15T08:51:32.096Z,4.30
2018-12-15T08:54:00.020Z,4.40
2018-12-15T08:56:27.975Z,4.40
2018-12-15T08:58:55.920Z,4.30
2018-12-15T09:01:23.851Z,4.30
2018-12-15T09:03:51.768Z,4.30
2018-12-15T09:06:19.710Z,4.30
2018-12-15T09:08:47.673Z,4.40
2018-12-15T09:11:15.668Z,4.40
2018-12-15T09:13:43.595Z,4.40
2018-12-15T09:16:12.529Z,4.20
2018-12-15T09:18:40.475Z,4.20
2018-12-15T09:21:08.398Z,4.10
2018-12-15T09:23:36.516Z,3.90
2018-12-15T09:26:04.436Z,3.90
2018-12-15T09:28:32.387Z,4.00
2018-12-15T09:31:00.322Z,4.00
2018-12-15T09:33:28.280Z,4.20
2018-12-15T09:35:56.212Z,4.30
2018-12-15T09:38:24.140Z,4.60
2018-12-15T09:40:52.588Z,4.90
2018-12-15T09:43:20.560Z,5.10
2018-12-15T09:45:48.532Z,5.20
2018-12-15T09:48:16.497Z,5.40
2018-12-15T09:50:44.491Z,5.50
2018-12-15T09:53:12.572Z,5.50
2018-12-15T09:55:40.541Z,5.80
2018-12-15T09:58:08.504Z,6.00
2018-12-15T10:00:37.304Z,6.20
2018-12-15T10:03:05.514Z,6.30
2018-12-15T10:05:33.589Z,6.30
2018-12-15T10:08:01.781Z,6.50
2018-12-15T10:10:29.924Z,6.70
2018-12-15T10:12:57.856Z,6.90
2018-12-15T10:15:25.811Z,6.90
2018-12-15T10:17:53.911Z,7.10
2018-12-15T10:20:21.845Z,7.40
2018-12-15T10:22:49.833Z,7.20
2018-12-15T10:25:17.863Z,7.10
2018-12-15T10:27:45.825Z,7.30
2018-12-15T10:30:19.168Z,7.50
2018-12-15T10:35:49.907Z,7.40
2018-12-15T10:38:17.856Z,7.40
2018-12-15T10:40:45.833Z,7.50
2018-12-15T10:43:13.791Z,7.50
2018-12-15T10:45:42.158Z,7.50
2018-12-15T10:48:10.092Z,7.50
2018-12-15T10:50:38.187Z,7.50
2018-12-15T10:53:06.237Z,7.60
2018-12-15T10:55:34.184Z,7.60
2018-12-15T10:58:02.138Z,7.60
2018-12-15T11:00:36.822Z,7.50
2018-12-15T11:03:05.921Z,7.50
2018-12-15T11:05:33.891Z,7.50
2018-12-15T11:08:01.831Z,7.40
2018-12-15T11:10:29.765Z,7.40
2018-12-15T11:12:57.750Z,7.30
2018-12-15T11:15:25.784Z,7.20
2018-12-15T11:17:54.165Z,7.30
2018-12-15T11:20:23.722Z,7.30
2018-12-15T11:22:51.745Z,7.40
2018-12-15T11:25:19.689Z,7.50
2018-12-15T11:27:48.513Z,7.70
2018-12-15T11:30:16.556Z,7.90
2018-12-15T11:32:44.532Z,8.00
2018-12-15T11:35:27.599Z,7.90
2018-12-15T11:37:55.652Z,7.70
2018-12-15T11:40:23.580Z,7.70
2018-12-15T11:42:51.604Z,7.60
2018-12-15T11:45:19.570Z,7.60
2018-12-15T11:47:47.540Z,7.50
2018-12-15T11:50:15.472Z,7.50
2018-12-15T11:52:43.416Z,7.50
2018-12-15T11:55:11.405Z,7.50
2018-12-15T11:57:39.358Z,7.60
2018-12-15T12:00:07.389Z,7.60
2018-12-15T12:02:35.461Z,7.60
2018-12-15T12:05:03.417Z,7.60
2018-12-15T12:07:31.372Z,7.60
2018-12-15T12:09:59.307Z,7.60
2018-12-15T12:12:27.335Z,7.70
2018-12-15T12:14:55.260Z,7.70
2018-12-15T12:17:23.190Z,7.70
2018-12-15T12:19:51.196Z,7.80
2018-12-15T12:22:19.183Z,7.80
2018-12-15T12:24:47.157Z,7.80
2018-12-15T12:27:15.110Z,7.80
2018-12-15T12:29:43.045Z,7.90
2018-12-15T12:32:11.004Z,7.90
2018-12-15T12:34:38.921Z,8.00
2018-12-15T12:37:07.025Z,7.90
2018-12-15T12:39:34.989Z,8.00
2018-12-15T12:42:02.986Z,8.10
2018-12-15T12:44:31.004Z,8.30
2018-12-15T12:46:58.964Z,8.40
2018-12-15T12:49:26.900Z,8.40
2018-12-15T12:51:55.069Z,8.40
2018-12-15T12:54:23.019Z,8.40
2018-12-15T12:56:50.958Z,8.30
2018-12-15T12:59:18.988Z,8.20
2018-12-15T13:01:46.990Z,8.20
2018-12-15T13:04:14.919Z,8.10
2018-12-15T13:06:42.939Z,8.10
2018-12-15T13:09:10.850Z,8.10
2018-12-15T13:11:38.799Z,8.10
2018-12-15T13:14:07.734Z,8.00
2018-12-15T13:16:35.731Z,8.00
2018-12-15T13:19:03.806Z,8.00
2018-12-15T13:21:31.769Z,8.10
2018-12-15T13:23:59.700Z,8.20
2018-12-15T13:26:27.680Z,8.30
2018-12-15T13:28:55.658Z,8.40
2018-12-15T13:31:23.592Z,8.40
2018-12-15T13:33:51.541Z,8.40
2018-12-15T13:36:19.524Z,8.40
2018-12-15T13:38:47.484Z,8.50
2018-12-15T13:41:15.404Z,8.60
2018-12-15T13:43:43.372Z,8.60
2018-12-15T13:46:11.302Z,8.80
2018-12-15T13:48:39.438Z,8.80
2018-12-15T13:51:07.485Z,8.80
2018-12-15T13:53:35.413Z,8.80
2018-12-15T13:56:03.496Z,8.70
2018-12-15T13:58:31.466Z,8.70
2018-12-15T14:00:59.524Z,8.60
2018-12-15T14:03:27.591Z,8.70
2018-12-15T14:05:55.524Z,8.70
2018-12-15T14:08:23.524Z,8.60
2018-12-15T14:10:51.464Z,8.60
2018-12-15T14:13:19.395Z,8.40
2018-12-15T14:15:47.420Z,8.40
2018-12-15T14:18:15.420Z,8.50
2018-12-15T14:20:43.361Z,8.50
2018-12-15T14:23:11.559Z,8.50
2018-12-15T14:25:40.292Z,8.50
2018-12-15T14:28:09.441Z,8.50
2018-12-15T14:30:38.506Z,8.50
2018-12-15T14:33:06.827Z,8.40
2018-12-15T14:35:35.217Z,8.40
2018-12-15T14:38:03.621Z,8.40
2018-12-15T14:40:31.991Z,8.40
2018-12-15T14:43:00.202Z,8.40
2018-12-15T14:45:28.362Z,8.40
2018-12-15T14:47:56.536Z,8.40
2018-12-15T14:50:24.733Z,8.40
2018-12-15T14:52:52.932Z,8.40
2018-12-15T14:55:21.155Z,8.30
2018-12-15T14:57:49.355Z,8.30
2018-12-15T15:00:17.673Z,8.40
2018-12-15T15:02:45.894Z,8.40
2018-12-15T15:05:14.159Z,8.40
2018-12-15T15:07:42.399Z,8.40
2018-12-15T15:10:10.689Z,8.30
2018-12-15T15:12:39.419Z,8.30
2018-12-15T15:15:08.511Z,8.40
2018-12-15T15:17:36.827Z,8.30
2018-12-15T15:20:05.897Z,8.20
2018-12-15T15:22:34.255Z,8.10
2018-12-15T15:25:02.493Z,8.00
2018-12-15T15:27:30.926Z,8.00
2018-12-15T15:29:59.246Z,8.00
2018-12-15T15:32:28.560Z,8.10
2018-12-15T15:34:56.892Z,8.10
2018-12-15T15:37:25.172Z,8.10
2018-12-15T15:39:53.829Z,8.10
2018-12-15T15:42:22.032Z,8.20
2018-12-15T15:44:50.539Z,8.20
2018-12-15T15:47:19.382Z,8.20
2018-12-15T15:49:48.633Z,8.20
2018-12-15T15:52:16.944Z,8.20
2018-12-15T15:54:45.145Z,8.30
2018-12-15T15:57:13.342Z,8.30
2018-12-15T15:59:41.917Z,8.40
2018-12-15T16:02:11.230Z,8.30
2018-12-15T16:04:40.229Z,8.30
2018-12-15T16:07:09.940Z,8.20
2018-12-15T16:09:44.738Z,8.10
2018-12-15T16:12:10.133Z,8.10
2018-12-15T16:14:38.761Z,8.00
2018-12-15T16:17:07.167Z,8.00
2018-12-15T16:19:36.462Z,8.00
2018-12-15T16:22:05.514Z,8.00
2018-12-15T16:24:33.501Z,8.10
2018-12-15T16:27:01.459Z,8.00
2018-12-15T16:29:29.386Z,8.10
2018-12-15T16:31:57.306Z,8.20
2018-12-15T16:34:25.304Z,8.10
2018-12-15T16:36:53.238Z,8.10
2018-12-15T16:39:21.297Z,8.00
2018-12-15T16:41:49.212Z,7.90
2018-12-15T16:44:17.150Z,7.90
2018-12-15T16:46:45.064Z,7.90
2018-12-15T16:49:12.985Z,7.80
2018-12-15T16:51:40.932Z,7.80
2018-12-15T16:54:09.093Z,7.80
2018-12-15T16:56:37.015Z,7.70
2018-12-15T16:59:04.943Z,7.70
2018-12-15T17:01:32.869Z,7.60
2018-12-15T17:04:00.805Z,7.60
2018-12-15T17:06:28.717Z,7.60
2018-12-15T17:08:56.641Z,7.60
2018-12-15T17:11:24.569Z,7.60
2018-12-15T17:13:52.477Z,7.50
2018-12-15T17:16:20.426Z,7.50
2018-12-15T17:18:48.393Z,7.50
2018-12-15T17:21:16.319Z,7.50
2018-12-15T17:23:44.232Z,7.50
2018-12-15T17:26:12.196Z,7.50
2018-12-15T17:28:40.145Z,7.50
2018-12-15T17:31:08.099Z,7.60
2018-12-15T17:33:36.447Z,7.70
2018-12-15T17:36:04.368Z,7.70
2018-12-15T17:38:32.292Z,7.70
2018-12-15T17:41:00.217Z,7.70
2018-12-15T17:43:28.127Z,7.70
2018-12-15T17:45:56.057Z,7.60
2018-12-15T17:48:23.994Z,7.50
2018-12-15T17:50:51.941Z,7.50
2018-12-15T17:53:19.901Z,7.40
2018-12-15T17:55:47.817Z,7.30
2018-12-15T17:58:15.759Z,7.30
2018-12-15T18:00:43.759Z,7.20
2018-12-15T18:03:11.700Z,7.20
2018-12-15T18:05:39.774Z,7.20
2018-12-15T18:08:08.340Z,7.20
2018-12-15T18:10:36.293Z,7.20
2018-12-15T18:13:04.244Z,7.20
2018-12-15T18:15:32.369Z,7.20
2018-12-15T18:18:00.364Z,7.10
2018-12-15T18:20:28.452Z,7.10
2018-12-15T18:22:56.393Z,7.00
2018-12-15T18:25:24.315Z,6.90
2018-12-15T18:27:52.244Z,6.90
2018-12-15T18:30:20.205Z,6.90
2018-12-15T18:32:48.140Z,6.90
2018-12-15T18:35:16.076Z,6.90
2018-12-15T18:37:44.020Z,6.90
2018-12-15T18:40:11.956Z,6.90
2018-12-15T18:42:39.908Z,6.90
2018-12-15T18:45:07.964Z,6.80
2018-12-15T18:47:35.919Z,6.90
2018-12-15T18:50:04.667Z,6.80
2018-12-15T18:52:32.584Z,6.80
2018-12-15T18:55:00.541Z,6.80
2018-12-15T18:57:28.505Z,6.90
2018-12-15T18:59:56.449Z,6.90
2018-12-15T19:02:24.372Z,6.90
2018-12-15T19:04:52.336Z,6.90
2018-12-15T19:07:20.256Z,7.00
2018-12-15T19:09:48.205Z,7.00
2018-12-15T19:12:16.117Z,6.90
2018-12-15T19:14:44.045Z,6.90
2018-12-15T19:17:11.995Z,6.90
2018-12-15T19:19:40.008Z,7.00
2018-12-15T19:22:08.860Z,7.00
2018-12-15T19:24:36.784Z,7.00
2018-12-15T19:27:04.788Z,7.00
2018-12-15T19:29:32.720Z,7.00
2018-12-15T19:32:00.634Z,7.00
2018-12-15T19:34:28.588Z,7.10
2018-12-15T19:36:56.544Z,7.10
2018-12-15T19:39:24.515Z,7.10
2018-12-15T19:41:52.446Z,7.10
2018-12-15T19:44:20.410Z,7.10
2018-12-15T19:46:48.355Z,7.00
2018-12-15T19:49:16.273Z,7.00
2018-12-15T19:51:44.229Z,7.10
2018-12-15T19:54:12.155Z,7.10
2018-12-15T19:59:22.830Z,7.40
2018-12-15T20:01:50.786Z,7.40
2018-12-15T20:04:18.712Z,7.40
2018-12-15T20:06:46.676Z,7.40
2018-12-15T20:09:14.904Z,7.30
2018-12-15T20:11:42.848Z,7.40
2018-12-15T20:14:10.813Z,7.40
2018-12-15T20:16:38.959Z,7.40
2018-12-15T20:19:06.888Z,7.50
2018-12-15T20:21:36.094Z,7.50
2018-12-15T20:24:04.207Z,7.50
2018-12-15T20:26:32.133Z,7.60
2018-12-15T20:29:00.073Z,7.50
2018-12-15T20:31:28.008Z,7.50
2018-12-15T20:33:55.920Z,7.60
2018-12-15T20:36:23.826Z,7.60
2018-12-15T20:38:51.795Z,7.60
2018-12-15T20:41:50.197Z,7.50
2018-12-15T20:44:18.149Z,7.50
2018-12-15T20:46:46.092Z,7.50
2018-12-15T20:49:14.009Z,7.40
2018-12-15T20:51:42.945Z,7.40
2018-12-15T20:54:20.903Z,7.40
2018-12-15T20:56:48.852Z,7.40
2018-12-15T20:59:16.796Z,7.40
2018-12-15T21:01:44.734Z,7.50
2018-12-15T21:04:12.649Z,7.50
2018-12-15T21:06:40.576Z,7.60
2018-12-15T21:11:45.563Z,7.60
2018-12-15T21:14:13.478Z,7.60
2018-12-15T21:16:41.433Z,7.60
2018-12-15T21:19:09.913Z,7.60
2018-12-15T21:21:38.244Z,7.50
2018-12-15T21:24:06.153Z,7.60
2018-12-15T21:26:34.093Z,7.60
2018-12-15T21:29:02.026Z,7.60
2018-12-15T21:31:30.007Z,7.70
2018-12-15T21:33:57.987Z,7.70
2018-12-15T21:36:25.940Z,7.70
2018-12-15T21:38:53.871Z,7.70
2018-12-15T21:41:21.840Z,7.70
2018-12-15T21:43:49.887Z,7.70
2018-12-15T21:46:17.817Z,7.70
2018-12-15T21:48:45.766Z,7.70
2018-12-15T21:51:13.715Z,7.80
2018-12-15T21:53:41.810Z,7.70
2018-12-15T21:56:10.777Z,7.70
2018-12-15T21:58:39.024Z,7.70
2018-12-15T22:01:06.947Z,7.70
2018-12-15T22:03:35.147Z,7.70
2018-12-15T22:06:03.136Z,7.60
2018-12-15T22:08:31.078Z,7.60
2018-12-15T22:10:59.013Z,7.60
2018-12-15T22:13:26.947Z,7.70
2018-12-15T22:15:54.899Z,7.70
2018-12-15T22:18:22.894Z,7.70
2018-12-15T22:20:51.032Z,7.70
2018-12-15T22:23:18.989Z,7.70
2018-12-15T22:25:46.940Z,7.70
2018-12-15T22:28:14.883Z,7.60
2018-12-15T22:30:42.891Z,7.60
2018-12-15T22:33:11.572Z,7.60
2018-12-15T22:35:39.507Z,7.60
2018-12-15T22:38:07.512Z,7.60
2018-12-15T22:40:35.468Z,7.60
2018-12-15T22:43:03.409Z,7.70
2018-12-15T22:45:31.371Z,7.70
2018-12-15T22:47:59.301Z,7.80
2018-12-15T22:50:27.256Z,7.70
2018-12-15T22:52:55.176Z,7.70
2018-12-15T22:55:23.103Z,7.80
2018-12-15T22:57:51.100Z,7.80
2018-12-15T23:00:19.069Z,7.80
2018-12-15T23:02:46.997Z,7.90
2018-12-15T23:05:14.956Z,7.90
2018-12-15T23:07:43.503Z,7.90
2018-12-15T23:10:11.443Z,8.00
2018-12-15T23:12:39.405Z,8.10
2018-12-15T23:15:08.025Z,8.00
2018-12-15T23:17:35.973Z,7.90
2018-12-15T23:20:05.355Z,7.90
2018-12-15T23:22:33.356Z,7.90
2018-12-15T23:25:01.277Z,7.90
2018-12-15T23:27:29.296Z,8.00
2018-12-15T23:29:57.212Z,7.90
2018-12-15T23:32:25.139Z,7.90
2018-12-15T23:34:53.120Z,8.00
2018-12-15T23:37:21.060Z,8.00
2018-12-15T23:39:48.994Z,8.00
2018-12-15T23:42:17.082Z,8.00
2018-12-15T23:44:45.989Z,8.00
2018-12-15T23:47:13.986Z,8.00
2018-12-15T23:49:41.953Z,8.10
2018-12-15T23:52:09.893Z,8.20
2018-12-15T23:54:37.820Z,8.20
2018-12-15T23:57:05.789Z,8.20
2018-12-15T23:59:33.722Z,8.20
